Date,TemperatureHighF,TemperatureAvgF,TemperatureLowF,DewpointHighF,DewpointAvgF,DewpointLowF,HumidityHigh,HumidityAvg,HumidityLow,PressureMaxIn,PressureMinIn,WindSpeedMaxMPH,WindSpeedAvgMPH,GustSpeedMaxMPH,PrecipitationSumIn
2014-3-1,33.8,21.4,5.2,-2.7,-22.3,-39.3,25,13,10,30.14,29.81,23,6,23,0.00
2014-3-2,40.5,31.9,26.6,-0.3,-11.6,-23.0,23,15,10,29.81,29.69,21,6,21,0.00
2014-3-3,26.1,17.9,10.9,-10.6,-26.4,-34.9,28,12,10,29.99,29.71,19,8,19,0.00
2014-3-4,28.6,18.2,4.1,-21.0,-27.9,-38.3,21,11,10,30.08,29.95,15,4,15,0.00
2014-3-5,27.3,21.4,13.1,6.5,-9.1,-27.5,56,27,10,30.19,29.93,15,5,15,0.00
2014-3-6,35.6,18.7,4.6,-15.5,-27.0,-39.7,23,11,10,30.33,30.19,13,4,14,0.00
2014-3-7,41.4,26.1,7.3,2.8,-16.2,-35.1,29,16,10,30.20,29.67,11,2,11,0.00
2014-3-8,54.9,39.9,26.6,11.9,0.2,-10.4,43,21,10,29.67,29.45,17,5,17,0.00
2014-3-9,41.0,33.0,26.4,6.5,-14.7,-22.3,32,12,10,29.68,29.59,23,8,23,0.00
2014-3-10,42.8,34.0,26.6,9.1,-6.9,-21.6,40,18,10,29.62,29.36,15,5,15,0.00
2014-3-11,58.1,44.8,34.0,20.7,5.9,-9.3,57,25,10,29.47,29.24,28,8,28,0.00
2014-3-12,46.6,40.1,34.9,30.0,14.1,-7.5,78,41,11,29.47,28.78,19,5,20,0.41
2014-3-13,34.9,18.1,10.8,28.4,-10.3,-33.5,77,34,10,29.67,28.75,32,5,32,0.05
2014-3-14,38.8,21.9,11.1,-13.0,-24.1,-34.6,19,11,10,29.89,29.67,23,9,23,0.00
2014-3-15,54.5,44.0,34.7,28.7,7.7,-12.6,68,27,10,29.65,29.41,34,13,34,0.05
2014-3-16,34.7,27.1,21.2,-0.6,-19.2,-26.9,32,12,10,29.91,29.64,27,11,27,0.00
2014-3-17,36.9,21.8,12.2,-14.6,-26.3,-33.8,10,10,10,29.88,29.76,17,6,17,0.00
2014-3-18,44.6,28.2,14.0,-2.8,-19.9,-32.4,28,11,10,30.06,29.86,15,4,15,0.00
2014-3-19,45.0,33.0,20.3,15.7,-3.6,-14.6,50,24,10,30.09,29.73,16,4,16,0.04
2014-3-20,49.8,39.4,31.6,32.2,15.4,-8.6,77,45,10,29.73,29.36,31,8,31,0.39
2014-3-21,41.4,35.0,29.7,5.1,-4.7,-15.1,30,19,10,29.77,29.49,33,13,33,0.00
2014-3-22,54.9,37.6,24.8,21.9,-0.1,-11.6,38,22,10,29.79,29.41,46,10,46,0.01
2014-3-23,38.3,32.9,22.5,3.3,-10.5,-25.8,28,16,10,29.79,29.65,24,9,24,0.00
2014-3-24,33.1,22.2,12.4,-17.5,-26.0,-33.7,10,10,10,29.88,29.76,21,9,21,0.00
2014-3-25,37.6,26.7,15.4,-9.0,-19.4,-29.7,23,12,10,29.85,29.62,21,6,21,0.00
2014-3-26,32.7,27.5,19.9,-5.8,-17.8,-27.9,23,13,10,29.76,29.38,43,17,43,0.11
2014-3-27,44.6,29.3,16.9,-8.6,-20.4,-30.3,10,10,10,30.04,29.76,25,10,25,0.00
2014-3-28,54.9,42.8,32.4,41.2,18.5,-17.9,71,41,10,29.96,29.69,31,11,31,0.07
2014-3-29,53.8,44.4,37.2,41.2,28.8,18.9,76,56,26,29.98,29.71,21,8,21,0.63
2014-3-30,38.7,36.8,34.2,33.3,30.7,27.2,81,78,75,29.71,29.36,29,14,29,2.02
2014-3-31,41.4,35.0,32.5,27.9,23.0,13.0,78,63,39,29.75,29.43,23,11,23,0.84